createdAt,value
2022-09-28T00:01:56.268Z,82.50
2022-09-28T00:04:23.245Z,82.60
2022-09-28T00:06:49.965Z,82.60
2022-09-28T00:09:16.866Z,82.60
2022-09-28T00:11:43.883Z,82.60
2022-09-28T00:14:10.726Z,82.60
2022-09-28T00:16:44.103Z,82.70
2022-09-28T00:19:11.403Z,82.70
2022-09-28T00:21:38.770Z,82.80
2022-09-28T00:24:18.997Z,82.90
2022-09-28T00:26:52.288Z,82.90
2022-09-28T00:29:20.256Z,82.90
2022-09-28T00:31:47.339Z,82.90
2022-09-28T00:34:14.120Z,82.90
2022-09-28T00:36:43.091Z,82.90
2022-09-28T00:39:09.966Z,82.90
2022-09-28T00:41:38.772Z,82.90
2022-09-28T00:44:44.172Z,82.90
2022-09-28T00:47:18.428Z,83.00
2022-09-28T00:49:49.177Z,83.00
2022-09-28T00:52:17.581Z,83.10
2022-09-28T00:54:44.352Z,83.10
2022-09-28T00:57:11.064Z,83.20
2022-09-28T00:59:37.809Z,83.10
2022-09-28T01:02:04.590Z,83.10
2022-09-28T01:04:31.371Z,83.20
2022-09-28T01:06:58.190Z,83.20
2022-09-28T01:09:25.567Z,83.30
2022-09-28T01:11:52.346Z,83.30
2022-09-28T01:14:19.203Z,83.30
2022-09-28T01:16:56.011Z,83.40
2022-09-28T01:19:42.465Z,83.40
2022-09-28T01:22:35.601Z,83.40
2022-09-28T01:25:21.415Z,83.50
2022-09-28T01:27:49.867Z,83.50
2022-09-28T01:30:18.365Z,83.50
2022-09-28T01:32:51.325Z,83.60
2022-09-28T01:35:23.570Z,83.60
2022-09-28T01:37:52.252Z,83.70
2022-09-28T01:40:19.448Z,83.70
2022-09-28T01:42:47.200Z,83.80
2022-09-28T01:45:37.357Z,83.80
2022-09-28T01:48:05.865Z,83.80
2022-09-28T01:50:35.119Z,83.80
2022-09-28T01:53:07.333Z,83.80
2022-09-28T01:55:34.862Z,83.90
2022-09-28T01:58:18.179Z,83.90
2022-09-28T02:00:46.488Z,84.00
2022-09-28T02:03:17.620Z,84.00
2022-09-28T02:05:57.221Z,84.00
2022-09-28T02:08:33.619Z,84.10
2022-09-28T02:11:03.331Z,84.20
2022-09-28T02:13:33.981Z,84.30
2022-09-28T02:16:03.995Z,84.30
2022-09-28T02:18:30.793Z,84.40
2022-09-28T02:21:01.647Z,84.60
2022-09-28T02:23:29.335Z,84.60
2022-09-28T02:26:00.952Z,84.70
2022-09-28T02:28:27.928Z,84.80
2022-09-28T02:30:54.668Z,84.80
2022-09-28T02:33:25.836Z,84.80
2022-09-28T02:35:52.610Z,84.80
2022-09-28T02:38:21.207Z,84.80
2022-09-28T02:40:50.667Z,84.80
2022-09-28T02:43:24.531Z,84.70
2022-09-28T02:45:51.851Z,84.70
2022-09-28T02:49:00.061Z,84.70
2022-09-28T02:51:41.027Z,84.70
2022-09-28T02:54:31.141Z,84.70
2022-09-28T02:57:20.202Z,84.70
2022-09-28T02:59:57.001Z,84.70
2022-09-28T03:02:24.994Z,84.60
2022-09-28T03:04:51.808Z,84.60
2022-09-28T03:07:27.519Z,84.60
2022-09-28T03:09:56.066Z,84.70
2022-09-28T03:12:23.544Z,84.80
2022-09-28T03:15:08.848Z,84.80
2022-09-28T03:17:35.616Z,84.80
2022-09-28T03:20:03.167Z,84.90
2022-09-28T03:22:29.947Z,84.90
2022-09-28T03:24:56.749Z,85.00
2022-09-28T03:27:23.681Z,85.00
2022-09-28T03:29:50.517Z,85.10
2022-09-28T03:32:17.276Z,85.20
2022-09-28T03:34:44.068Z,85.30
2022-09-28T03:37:11.272Z,85.40
2022-09-28T03:39:38.064Z,85.50
2022-09-28T03:42:04.866Z,85.60
2022-09-28T03:44:34.574Z,85.60
2022-09-28T03:47:01.437Z,85.70
2022-09-28T03:49:28.195Z,85.80
2022-09-28T03:51:54.986Z,85.90
2022-09-28T03:54:24.050Z,86.00
2022-09-28T03:56:51.884Z,86.10
2022-09-28T03:59:18.833Z,86.10
2022-09-28T04:01:45.877Z,86.10
2022-09-28T04:04:13.929Z,86.10
2022-09-28T04:06:40.754Z,86.10
2022-09-28T04:09:07.714Z,86.10
2022-09-28T04:11:47.596Z,86.20
2022-09-28T04:14:21.248Z,86.70
2022-09-28T04:16:48.238Z,86.20
2022-09-28T04:19:15.949Z,86.20
2022-09-28T04:21:57.362Z,86.20
2022-09-28T04:24:24.066Z,86.20
2022-09-28T04:26:51.488Z,86.20
2022-09-28T04:29:19.220Z,86.20
2022-09-28T04:31:56.795Z,86.30
2022-09-28T04:34:37.115Z,86.30
2022-09-28T04:37:05.023Z,86.30
2022-09-28T04:39:31.827Z,86.50
2022-09-28T04:41:58.647Z,86.50
2022-09-28T04:44:27.111Z,86.50
2022-09-28T04:47:02.976Z,86.50
2022-09-28T04:49:31.903Z,86.50
2022-09-28T04:52:05.186Z,86.50
2022-09-28T04:54:34.117Z,86.50
2022-09-28T04:57:01.900Z,86.50
2022-09-28T04:59:28.678Z,86.60
2022-09-28T05:01:55.448Z,86.60
2022-09-28T05:04:37.199Z,86.60
2022-09-28T05:07:22.563Z,86.60
2022-09-28T05:09:49.390Z,86.60
2022-09-28T05:12:16.147Z,86.60
2022-09-28T05:14:42.859Z,86.70
2022-09-28T05:17:10.523Z,86.70
2022-09-28T05:19:46.067Z,86.70
2022-09-28T05:22:14.863Z,86.70
2022-09-28T05:24:46.404Z,86.60
2022-09-28T05:27:13.684Z,86.70
2022-09-28T05:29:40.881Z,86.70
2022-09-28T05:32:25.852Z,86.70
2022-09-28T05:35:11.204Z,86.60
2022-09-28T05:37:45.265Z,86.60
2022-09-28T05:40:12.152Z,86.50
2022-09-28T05:42:39.372Z,86.60
2022-09-28T05:45:06.367Z,86.50
2022-09-28T05:47:36.977Z,86.60
2022-09-28T05:50:04.004Z,86.70
2022-09-28T05:52:30.858Z,86.70
2022-09-28T05:54:57.668Z,86.70
2022-09-28T05:57:26.104Z,86.70
2022-09-28T05:59:52.848Z,86.90
2022-09-28T06:02:20.014Z,86.80
2022-09-28T06:04:50.291Z,86.80
2022-09-28T06:07:17.831Z,86.80
2022-09-28T06:09:44.864Z,86.80
2022-09-28T06:12:17.332Z,86.70
2022-09-28T06:14:48.650Z,86.50
2022-09-28T06:17:15.574Z,86.40
2022-09-28T06:19:47.408Z,86.30
2022-09-28T06:22:25.508Z,86.20
2022-09-28T06:25:00.005Z,86.10
2022-09-28T06:27:27.233Z,86.00
2022-09-28T06:29:54.094Z,86.00
2022-09-28T06:32:20.875Z,85.90
2022-09-28T06:34:54.021Z,85.90
2022-09-28T06:37:25.945Z,85.80
2022-09-28T06:39:53.304Z,85.80
2022-09-28T06:42:20.172Z,85.80
2022-09-28T06:45:05.934Z,85.80
2022-09-28T06:48:11.164Z,85.70
2022-09-28T06:50:40.418Z,85.60
2022-09-28T06:53:28.442Z,85.60
2022-09-28T06:56:20.969Z,85.60
2022-09-28T06:58:48.141Z,85.50
2022-09-28T07:01:15.114Z,85.50
2022-09-28T07:04:17.336Z,85.50
2022-09-28T07:07:02.843Z,85.50
2022-09-28T07:10:08.905Z,85.40
2022-09-28T07:12:56.294Z,85.40
2022-09-28T07:15:29.369Z,85.30
2022-09-28T07:18:01.899Z,85.30
2022-09-28T07:20:31.152Z,85.20
2022-09-28T07:23:13.781Z,85.10
2022-09-28T07:26:05.822Z,85.20
2022-09-28T07:28:44.727Z,85.10
2022-09-28T07:31:30.062Z,85.10
2022-09-28T07:34:17.371Z,85.00
2022-09-28T07:36:59.626Z,85.00
2022-09-28T07:39:26.346Z,84.90
2022-09-28T07:41:56.661Z,84.90
2022-09-28T07:44:27.841Z,84.80
2022-09-28T07:46:54.681Z,84.70
2022-09-28T07:49:27.841Z,84.60
2022-09-28T07:52:13.841Z,84.50
2022-09-28T07:55:02.217Z,84.40
2022-09-28T07:57:56.115Z,84.40
2022-09-28T08:00:51.935Z,84.40
2022-09-28T08:03:19.363Z,84.20
2022-09-28T08:05:46.820Z,84.20
2022-09-28T08:08:13.934Z,84.10
2022-09-28T08:10:46.875Z,84.00
2022-09-28T08:13:37.374Z,83.90
2022-09-28T08:16:19.047Z,83.80
2022-09-28T08:19:04.269Z,83.70
2022-09-28T08:21:45.981Z,83.70
2022-09-28T08:24:13.744Z,83.60
2022-09-28T08:26:40.479Z,83.40
2022-09-28T08:29:08.659Z,83.40
2022-09-28T08:31:44.668Z,83.40
2022-09-28T08:34:20.699Z,83.20
2022-09-28T08:37:16.704Z,82.90
2022-09-28T08:40:02.081Z,82.30
2022-09-28T08:42:39.595Z,82.10
2022-09-28T08:45:47.368Z,82.30
2022-09-28T08:49:13.476Z,81.40
2022-09-28T08:52:08.288Z,81.10
2022-09-28T08:55:15.499Z,81.10
2022-09-28T08:58:08.787Z,81.20
2022-09-28T09:00:41.729Z,81.50
2022-09-28T09:03:19.069Z,81.40
2022-09-28T09:06:09.794Z,81.20
2022-09-28T09:09:13.347Z,81.10
2022-09-28T09:11:45.336Z,80.90
2022-09-28T09:14:12.154Z,80.50
2022-09-28T09:16:49.363Z,80.30
2022-09-28T09:19:49.407Z,80.00
2022-09-28T09:22:39.017Z,79.60
2022-09-28T09:25:26.055Z,79.10
2022-09-28T09:28:08.306Z,78.80
2022-09-28T09:30:40.487Z,78.60
2022-09-28T09:33:07.517Z,78.40
2022-09-28T09:35:45.444Z,78.30
2022-09-28T09:38:50.587Z,78.00
2022-09-28T09:41:50.760Z,77.80
2022-09-28T09:44:52.883Z,77.50
2022-09-28T09:47:39.452Z,77.30
2022-09-28T09:50:29.942Z,77.20
2022-09-28T09:53:27.617Z,77.20
2022-09-28T09:55:57.451Z,77.10
2022-09-28T09:58:38.540Z,77.30
2022-09-28T10:01:16.185Z,77.60
2022-09-28T10:04:03.560Z,77.70
2022-09-28T10:06:32.022Z,77.60
2022-09-28T10:09:01.745Z,77.50
2022-09-28T10:11:29.282Z,77.40
2022-09-28T10:13:57.711Z,77.50
2022-09-28T10:16:54.317Z,77.60
2022-09-28T10:19:41.036Z,77.60
2022-09-28T10:22:27.054Z,78.20
2022-09-28T10:24:58.344Z,78.50
2022-09-28T10:27:26.816Z,78.60
2022-09-28T10:29:54.576Z,78.80
2022-09-28T10:32:23.672Z,78.50
2022-09-28T10:34:54.986Z,78.30
2022-09-28T10:37:27.296Z,78.00
2022-09-28T10:40:05.983Z,77.70
2022-09-28T10:42:36.141Z,77.30
2022-09-28T10:45:05.799Z,76.70
2022-09-28T10:47:35.525Z,76.50
2022-09-28T10:50:04.674Z,76.40
2022-09-28T10:52:32.458Z,76.00
2022-09-28T10:54:59.701Z,75.70
2022-09-28T10:57:27.998Z,75.20
2022-09-28T10:59:59.634Z,74.40
2022-09-28T11:02:49.593Z,74.20
2022-09-28T11:05:21.736Z,74.20
2022-09-28T11:07:49.819Z,74.90
2022-09-28T11:10:27.949Z,75.60
2022-09-28T11:12:58.903Z,76.20
2022-09-28T11:15:28.778Z,76.50
2022-09-28T11:17:55.960Z,76.70
2022-09-28T11:20:27.820Z,77.00
2022-09-28T11:22:58.049Z,77.40
2022-09-28T11:25:28.732Z,77.50
2022-09-28T11:27:55.709Z,77.90
2022-09-28T11:30:34.153Z,76.90
2022-09-28T11:33:31.325Z,75.80
2022-09-28T11:36:19.857Z,75.20
2022-09-28T11:38:56.142Z,75.30
2022-09-28T11:41:50.921Z,75.70
2022-09-28T11:44:25.450Z,76.00
2022-09-28T11:47:10.073Z,76.40
2022-09-28T11:49:50.455Z,76.50
2022-09-28T11:52:19.137Z,76.40
2022-09-28T11:54:56.055Z,76.40
2022-09-28T11:57:24.532Z,76.40
2022-09-28T11:59:52.809Z,76.10
2022-09-28T12:02:22.054Z,75.70
2022-09-28T12:04:58.572Z,75.30
2022-09-28T12:07:29.832Z,75.10
2022-09-28T12:10:02.857Z,75.00
2022-09-28T12:12:32.708Z,75.10
2022-09-28T12:15:03.208Z,75.20
2022-09-28T12:17:40.577Z,75.40
2022-09-28T12:20:13.848Z,75.60
2022-09-28T12:22:41.915Z,75.80
2022-09-28T12:25:10.393Z,75.90
2022-09-28T12:27:41.208Z,76.00
2022-09-28T12:30:15.042Z,76.00
2022-09-28T12:32:44.946Z,76.00
2022-09-28T12:35:17.887Z,75.00
2022-09-28T12:38:08.943Z,73.70
2022-09-28T12:40:53.412Z,73.40
2022-09-28T12:43:20.385Z,73.30
2022-09-28T12:46:11.618Z,73.20
2022-09-28T12:48:43.609Z,73.00
2022-09-28T12:51:10.392Z,72.90
2022-09-28T12:53:53.046Z,70.70
2022-09-28T12:56:42.327Z,70.00
2022-09-28T12:59:09.160Z,69.80
2022-09-28T13:01:36.178Z,70.20
2022-09-28T13:04:23.782Z,70.90
2022-09-28T13:06:57.376Z,71.10
2022-09-28T13:09:24.876Z,70.50
2022-09-28T13:12:10.028Z,65.90
2022-09-28T13:14:36.844Z,61.40
2022-09-28T13:17:09.298Z,57.10
2022-09-28T13:19:36.243Z,55.50
2022-09-28T13:22:15.316Z,53.90
2022-09-28T13:24:44.298Z,55.80
2022-09-28T13:27:13.498Z,56.80
2022-09-28T13:29:40.271Z,57.20
2022-09-28T13:32:08.090Z,56.10
2022-09-28T13:34:35.301Z,55.60
2022-09-28T13:37:16.780Z,56.20
2022-09-28T13:39:53.886Z,58.20
2022-09-28T13:42:36.932Z,60.30
2022-09-28T13:45:14.976Z,62.70
2022-09-28T13:47:44.815Z,64.70
2022-09-28T13:50:19.660Z,67.50
2022-09-28T13:52:56.986Z,69.20
2022-09-28T13:55:25.307Z,71.10
2022-09-28T13:57:53.818Z,72.20
2022-09-28T14:00:45.670Z,72.40
2022-09-28T14:03:13.415Z,72.90
2022-09-28T14:05:59.205Z,70.50
2022-09-28T14:08:33.611Z,69.70
2022-09-28T14:11:19.564Z,69.90
2022-09-28T14:14:05.282Z,70.60
2022-09-28T14:16:32.666Z,71.30
2022-09-28T14:19:02.384Z,71.50
2022-09-28T14:21:49.389Z,71.30
2022-09-28T14:24:21.708Z,71.40
2022-09-28T14:27:06.946Z,71.40
2022-09-28T14:29:37.212Z,71.40
2022-09-28T14:32:24.667Z,71.50
2022-09-28T14:34:55.791Z,71.50
2022-09-28T14:37:46.120Z,71.30
2022-09-28T14:40:38.419Z,70.80
2022-09-28T14:43:28.799Z,70.60
2022-09-28T14:46:18.982Z,70.70
2022-09-28T14:48:52.726Z,70.80
2022-09-28T14:51:33.744Z,71.00
2022-09-28T14:54:03.706Z,71.00
2022-09-28T14:56:32.840Z,71.20
2022-09-28T14:58:59.860Z,71.60
2022-09-28T15:01:26.587Z,71.90
2022-09-28T15:03:54.643Z,72.10
2022-09-28T15:06:24.708Z,72.20
2022-09-28T15:08:51.545Z,72.30
2022-09-28T15:11:20.293Z,72.40
2022-09-28T15:13:47.093Z,72.20
2022-09-28T15:16:14.484Z,71.90
2022-09-28T15:19:01.012Z,71.90
2022-09-28T15:21:31.841Z,71.90
2022-09-28T15:23:58.560Z,71.70
2022-09-28T15:26:27.525Z,71.20
2022-09-28T15:28:54.489Z,70.90
2022-09-28T15:31:23.046Z,70.70
2022-09-28T15:36:38.905Z,70.10
2022-09-28T15:39:06.643Z,70.00
2022-09-28T15:41:33.565Z,70.00
2022-09-28T15:44:12.574Z,70.00
2022-09-28T15:46:39.878Z,70.10
2022-09-28T15:49:07.534Z,69.90
2022-09-28T15:51:50.094Z,69.80
2022-09-28T15:54:19.535Z,69.50
2022-09-28T15:56:54.791Z,69.30
2022-09-28T15:59:30.698Z,69.20
2022-09-28T16:02:09.783Z,67.40
2022-09-28T16:04:39.681Z,67.40
2022-09-28T16:07:09.557Z,64.40
2022-09-28T16:09:55.291Z,62.00
2022-09-28T16:12:22.350Z,60.00
2022-09-28T16:14:49.914Z,57.60
2022-09-28T16:17:43.012Z,55.90
2022-09-28T16:20:29.450Z,54.50
2022-09-28T16:22:57.158Z,53.30
2022-09-28T16:25:24.660Z,52.60
2022-09-28T16:27:55.241Z,52.40
2022-09-28T16:30:29.684Z,52.30
2022-09-28T16:32:57.310Z,52.30
2022-09-28T16:35:31.050Z,52.50
2022-09-28T16:38:10.460Z,52.60
2022-09-28T16:40:40.918Z,52.80
2022-09-28T16:43:07.859Z,53.10
2022-09-28T16:45:35.244Z,53.20
2022-09-28T16:48:03.068Z,53.70
2022-09-28T16:50:29.816Z,55.10
2022-09-28T16:53:30.219Z,56.20
2022-09-28T16:55:56.973Z,56.90
2022-09-28T16:58:25.108Z,57.20
2022-09-28T17:00:54.650Z,57.30
2022-09-28T17:03:23.379Z,57.90
2022-09-28T17:05:50.690Z,60.30
2022-09-28T17:08:18.194Z,63.20
2022-09-28T17:11:09.756Z,66.10
2022-09-28T17:13:33.940Z,68.60
2022-09-28T17:16:01.644Z,71.20
2022-09-28T17:18:31.664Z,72.70
2022-09-28T17:20:59.895Z,73.90
2022-09-28T17:23:26.838Z,74.80
2022-09-28T17:25:55.523Z,75.70
2022-09-28T17:28:23.405Z,76.30
2022-09-28T17:30:50.165Z,76.90
2022-09-28T17:33:16.920Z,77.30
2022-09-28T17:35:44.260Z,77.60
2022-09-28T17:38:14.384Z,77.80
2022-09-28T17:40:41.684Z,78.10
2022-09-28T17:43:08.605Z,78.20
2022-09-28T17:45:39.499Z,78.40
2022-09-28T17:48:16.059Z,78.50
2022-09-28T17:50:46.292Z,78.70
2022-09-28T17:53:13.489Z,78.80
2022-09-28T17:55:40.418Z,78.90
2022-09-28T17:58:13.174Z,79.00
2022-09-28T18:00:40.289Z,78.90
2022-09-28T18:03:09.684Z,78.90
2022-09-28T18:05:36.672Z,78.70
2022-09-28T18:08:04.490Z,78.70
2022-09-28T18:10:31.230Z,78.70
2022-09-28T18:12:57.931Z,78.70
2022-09-28T18:15:24.734Z,78.80
2022-09-28T18:17:51.421Z,78.80
2022-09-28T18:20:18.373Z,78.70
2022-09-28T18:22:45.221Z,78.80
2022-09-28T18:25:11.943Z,78.80
2022-09-28T18:27:38.737Z,78.80
2022-09-28T18:30:05.941Z,78.90
2022-09-28T18:32:38.963Z,78.90
2022-09-28T18:35:06.201Z,78.90
2022-09-28T18:37:36.492Z,79.00
2022-09-28T18:40:03.648Z,79.00
2022-09-28T18:42:31.637Z,78.90
2022-09-28T18:44:58.332Z,78.90
2022-09-28T18:47:25.485Z,78.90
2022-09-28T18:49:52.235Z,79.00
2022-09-28T18:52:18.960Z,78.80
2022-09-28T18:54:46.838Z,78.70
2022-09-28T18:57:13.569Z,78.60
2022-09-28T18:59:40.277Z,78.50
2022-09-28T19:02:07.095Z,78.50
2022-09-28T19:04:33.902Z,78.40
2022-09-28T19:07:00.700Z,78.40
2022-09-28T19:09:28.075Z,78.20
2022-09-28T19:11:54.926Z,78.20
2022-09-28T19:14:21.749Z,78.10
2022-09-28T19:16:49.532Z,78.10
2022-09-28T19:19:16.741Z,78.00
2022-09-28T19:21:43.597Z,78.10
2022-09-28T19:24:17.099Z,78.10
2022-09-28T19:26:44.130Z,78.00
2022-09-28T19:29:11.098Z,78.00
2022-09-28T19:31:37.870Z,78.00
2022-09-28T19:34:04.753Z,78.00
2022-09-28T19:36:31.963Z,78.00
2022-09-28T19:39:02.571Z,78.00
2022-09-28T19:41:44.154Z,77.90
2022-09-28T19:44:11.472Z,77.90
2022-09-28T19:46:39.500Z,77.90
2022-09-28T19:49:07.274Z,77.90
2022-09-28T19:51:34.133Z,77.90
2022-09-28T19:54:01.255Z,77.90
2022-09-28T19:56:31.710Z,77.90
2022-09-28T19:59:01.800Z,77.90
2022-09-28T20:01:28.959Z,77.90
2022-09-28T20:03:59.834Z,77.90
2022-09-28T20:06:27.393Z,78.00
2022-09-28T20:08:56.933Z,77.90
2022-09-28T20:11:26.355Z,78.00
2022-09-28T20:14:01.418Z,78.00
2022-09-28T20:16:29.291Z,78.00
2022-09-28T20:18:58.293Z,78.00
2022-09-28T20:21:26.881Z,78.10
2022-09-28T20:23:54.054Z,78.20
2022-09-28T20:26:20.783Z,78.20
2022-09-28T20:28:47.483Z,78.30
2022-09-28T20:31:14.253Z,78.30
2022-09-28T20:33:44.354Z,78.30
2022-09-28T20:36:12.313Z,78.40
2022-09-28T20:38:40.520Z,78.40
2022-09-28T20:41:08.108Z,78.60
2022-09-28T20:43:35.194Z,78.60
2022-09-28T20:46:02.402Z,78.70
2022-09-28T20:48:29.329Z,78.70
2022-09-28T20:50:59.991Z,78.70
2022-09-28T20:53:26.796Z,78.80
2022-09-28T20:55:57.526Z,78.70
2022-09-28T20:58:24.296Z,78.80
2022-09-28T21:00:50.992Z,78.80
2022-09-28T21:03:18.045Z,78.80
2022-09-28T21:05:45.165Z,78.80
2022-09-28T21:08:11.943Z,78.80
2022-09-28T21:10:42.673Z,78.80
2022-09-28T21:13:09.457Z,78.80
2022-09-28T21:15:36.216Z,79.20
2022-09-28T21:18:02.960Z,78.70
2022-09-28T21:20:29.734Z,78.70
2022-09-28T21:22:56.457Z,78.60
2022-09-28T21:25:23.304Z,78.50
2022-09-28T21:27:50.624Z,78.60
2022-09-28T21:30:19.019Z,78.60
2022-09-28T21:32:46.179Z,78.60
2022-09-28T21:35:14.304Z,78.70
2022-09-28T21:37:41.574Z,79.30
2022-09-28T21:40:09.864Z,78.90
2022-09-28T21:42:36.636Z,78.90
2022-09-28T21:45:03.519Z,79.00
2022-09-28T21:47:30.486Z,79.10
2022-09-28T21:49:57.372Z,79.20
2022-09-28T21:52:24.148Z,79.20
2022-09-28T21:54:50.890Z,79.30
2022-09-28T21:57:18.961Z,79.30
2022-09-28T21:59:47.073Z,79.40
2022-09-28T22:02:13.954Z,79.40
2022-09-28T22:04:40.958Z,79.50
2022-09-28T22:07:07.669Z,79.50
2022-09-28T22:09:34.882Z,79.60
2022-09-28T22:12:04.298Z,79.50
2022-09-28T22:14:32.436Z,79.60
2022-09-28T22:16:59.674Z,79.60
2022-09-28T22:19:26.369Z,79.60
2022-09-28T22:21:53.130Z,79.70
2022-09-28T22:24:20.089Z,79.70
2022-09-28T22:26:47.124Z,79.70
2022-09-28T22:29:13.882Z,79.70
2022-09-28T22:31:40.750Z,79.60
2022-09-28T22:34:07.731Z,79.60
2022-09-28T22:36:34.548Z,79.50
2022-09-28T22:39:01.276Z,79.50
2022-09-28T22:41:28.312Z,79.40
2022-09-28T22:43:55.141Z,79.40
2022-09-28T22:46:22.749Z,79.50
2022-09-28T22:48:50.337Z,79.60
2022-09-28T22:51:17.078Z,79.60
2022-09-28T22:53:43.793Z,79.70
2022-09-28T22:56:14.653Z,79.70
2022-09-28T22:58:44.341Z,79.70
2022-09-28T23:01:12.035Z,79.80
2022-09-28T23:03:42.535Z,79.80
2022-09-28T23:06:09.511Z,79.90
2022-09-28T23:08:36.323Z,79.90
2022-09-28T23:11:03.412Z,80.00
2022-09-28T23:13:31.097Z,79.90
2022-09-28T23:15:58.402Z,80.00
2022-09-28T23:18:26.084Z,80.00
2022-09-28T23:20:56.416Z,80.00
2022-09-28T23:23:23.174Z,80.10
2022-09-28T23:25:50.325Z,80.20
2022-09-28T23:28:17.324Z,80.20
2022-09-28T23:30:44.079Z,80.60
2022-09-28T23:33:13.950Z,80.10
2022-09-28T23:35:41.192Z,80.10
2022-09-28T23:38:14.514Z,80.10
2022-09-28T23:40:41.388Z,80.00
2022-09-28T23:43:08.197Z,79.90
2022-09-28T23:45:34.920Z,80.00
2022-09-28T23:48:01.938Z,80.00
2022-09-28T23:50:28.649Z,80.00
2022-09-28T23:52:55.405Z,80.00
2022-09-28T23:55:22.228Z,80.00
2022-09-28T23:57:48.985Z,80.00
